Time;durP1;ratioP1;P1;durP2;ratioP2;P2;SDS_P1;SDS_P2;PMS_P1;PMS_P2;Temp;Humidity;BMP_temperature;BMP_pressure;BME280_temperature;BME280_humidity;BME280_pressure;Samples;Min_cycle;Max_cycle;Signal;HPM_P1;HPM_P2
2023/09/07 00:01:44;;;;;;;14.80;7.40;;;;;;;-128.00;-1.00;-1.00;101095;316;1003185;-34
2023/09/07 00:04:10;;;;;;;14.60;6.90;;;;;;;-128.00;-1.00;-1.00;101017;316;1003270;-35
2023/09/07 00:06:36;;;;;;;7.20;4.40;;;;;;;-128.00;-1.00;-1.00;101100;316;1003304;-30
2023/09/07 00:09:02;;;;;;;15.20;8.30;;;;;;;-128.00;-1.00;-1.00;101114;316;1003940;-34
2023/09/07 00:11:28;;;;;;;11.70;7.80;;;;;;;-128.00;-1.00;-1.00;100662;316;1004521;-30
2023/09/07 00:13:54;;;;;;;9.80;6.30;;;;;;;-128.00;-1.00;-1.00;100945;317;1004378;-35
2023/09/07 00:16:19;;;;;;;22.90;10.00;;;;;;;-128.00;-1.00;-1.00;101000;316;1003216;-39
2023/09/07 00:18:45;;;;;;;11.70;6.80;;;;;;;-128.00;-1.00;-1.00;101052;316;1002947;-35
2023/09/07 00:21:11;;;;;;;17.00;12.00;;;;;;;-128.00;-1.00;-1.00;100868;316;1003301;-35
2023/09/07 00:23:37;;;;;;;23.00;11.00;;;;;;;-128.00;-1.00;-1.00;101065;316;1004296;-30
2023/09/07 00:26:02;;;;;;;21.40;10.70;;;;;;;-128.00;-1.00;-1.00;101038;316;1004489;-30
2023/09/07 00:28:28;;;;;;;9.40;7.00;;;;;;;-128.00;-1.00;-1.00;99872;316;2586246;-31
2023/09/07 00:30:53;;;;;;;8.30;5.10;;;;;;;-128.00;-1.00;-1.00;100620;316;1543090;-30
2023/09/07 00:33:19;;;;;;;6.60;3.40;;;;;;;-128.00;-1.00;-1.00;101042;316;1002838;-30
2023/09/07 00:35:44;;;;;;;14.20;9.70;;;;;;;-128.00;-1.00;-1.00;101019;316;1003913;-30
2023/09/07 01:17:33;;;;;;;10.80;7.70;;;;;;;-100.28;18.26;20055.67;101291;317;1575628;-34
2023/09/07 01:19:59;;;;;;;6.70;5.50;;;;;;;-128.00;-1.00;-1.00;100625;318;1003005;-30
2023/09/07 01:22:24;;;;;;;12.20;5.30;;;;;;;-128.00;-1.00;-1.00;92986;317;3002934;-30
2023/09/07 01:24:51;;;;;;;10.10;8.60;;;;;;;-128.00;-1.00;-1.00;101003;316;1003290;-30
2023/09/07 01:27:20;;;;;;;15.50;8.40;;;;;;;-128.00;-1.00;-1.00;48975;316;7361901;-30
2023/09/07 01:29:46;;;;;;;17.00;10.00;;;;;;;-128.00;-1.00;-1.00;19503;321;7505426;-34
2023/09/07 01:32:13;;;;;;;16.10;11.00;;;;;;;-128.00;-1.00;-1.00;19478;320;7505186;-31
2023/09/07 01:34:39;;;;;;;14.60;8.70;;;;;;;-128.00;-1.00;-1.00;19076;316;7505603;-30
2023/09/07 01:37:05;;;;;;;18.90;10.10;;;;;;;-128.00;-1.00;-1.00;19102;317;7504504;-35
2023/09/07 01:39:31;;;;;;;12.50;8.30;;;;;;;-128.00;-1.00;-1.00;19485;316;7504378;-33
2023/09/07 01:41:57;;;;;;;13.80;8.70;;;;;;;-128.00;-1.00;-1.00;19478;320;7504621;-35
2023/09/07 01:44:23;;;;;;;13.00;7.90;;;;;;;-128.00;-1.00;-1.00;19480;321;7505450;-35
2023/09/07 01:46:50;;;;;;;9.50;8.00;;;;;;;-128.00;-1.00;-1.00;19488;317;7505129;-31
2023/09/07 01:49:16;;;;;;;15.70;8.30;;;;;;;-128.00;-1.00;-1.00;19486;321;7504707;-33
2023/09/07 01:51:42;;;;;;;24.10;9.70;;;;;;;-128.00;-1.00;-1.00;19489;321;7504613;-30
2023/09/07 01:54:09;;;;;;;15.50;9.80;;;;;;;-128.00;-1.00;-1.00;19491;317;7506542;-30
2023/09/07 01:56:40;;;;;;;10.90;8.00;;;;;;;-128.00;-1.00;-1.00;21661;317;7505367;-30
2023/09/07 01:59:06;;;;;;;18.90;11.40;;;;;;;-128.00;-1.00;-1.00;43598;316;7504355;-32
2023/09/07 02:01:36;;;;;;;19.30;12.50;;;;;;;-128.00;-1.00;-1.00;61904;317;7504107;-36
2023/09/07 02:04:02;;;;;;;15.10;10.70;;;;;;;-128.00;-1.00;-1.00;31472;317;7504659;-36
2023/09/07 02:06:28;;;;;;;23.20;15.20;;;;;;;-128.00;-1.00;-1.00;101006;316;1003182;-32
2023/09/07 02:08:54;;;;;;;15.80;10.50;;;;;;;-128.00;-1.00;-1.00;101017;317;1003344;-34
2023/09/07 02:11:21;;;;;;;25.40;13.70;;;;;;;-128.00;-1.00;-1.00;44806;316;7504768;-35
2023/09/07 02:13:48;;;;;;;20.70;14.60;;;;;;;-128.00;-1.00;-1.00;25998;316;7505223;-31
2023/09/07 02:16:14;;;;;;;21.50;12.40;;;;;;;-128.00;-1.00;-1.00;30983;316;7505265;-37
2023/09/07 02:18:45;;;;;;;17.50;11.70;;;;;;;-128.00;-1.00;-1.00;20946;317;7505418;-35
2023/09/07 02:21:11;;;;;;;15.10;9.80;;;;;;;-128.00;-1.00;-1.00;19069;321;7504676;-34
2023/09/07 02:23:37;;;;;;;12.80;9.40;;;;;;;-128.00;-1.00;-1.00;19483;316;7505070;-30
2023/09/07 02:26:03;;;;;;;15.10;11.00;;;;;;;-128.00;-1.00;-1.00;19446;317;7504675;-37
2023/09/07 02:28:30;;;;;;;9.90;7.70;;;;;;;-128.00;-1.00;-1.00;19486;316;7504693;-36
2023/09/07 02:31:02;;;;;;;7.70;6.20;;;;;;;-128.00;-1.00;-1.00;38415;321;7504823;-35
2023/09/07 02:33:28;;;;;;;4.70;4.20;;;;;;;-128.00;-1.00;-1.00;100992;316;1002873;-32
2023/09/07 02:35:53;;;;;;;11.50;8.60;;;;;;;-128.00;-1.00;-1.00;101034;317;1003254;-31
2023/09/07 02:38:19;;;;;;;13.20;8.00;;;;;;;-128.00;-1.00;-1.00;99242;317;2406980;-30
2023/09/07 02:40:45;;;;;;;12.70;7.50;;;;;;;-128.00;-1.00;-1.00;101002;316;1004041;-30
2023/09/07 02:43:11;;;;;;;;;;;;;;;-128.00;-1.00;-1.00;101056;316;1004649;-30
2023/09/07 02:45:38;;;;;;;12.00;8.90;;;;;;;-128.00;-1.00;-1.00;101010;316;1002661;-29
2023/09/07 02:48:04;;;;;;;12.20;6.80;;;;;;;-128.00;-1.00;-1.00;101041;317;1002861;-34
2023/09/07 02:50:31;;;;;;;14.90;8.90;;;;;;;-128.00;-1.00;-1.00;101046;316;1004334;-35
2023/09/07 02:52:57;;;;;;;12.20;8.40;;;;;;;-128.00;-1.00;-1.00;101010;316;1003708;-34
2023/09/07 02:55:23;;;;;;;8.40;4.50;;;;;;;-128.00;-1.00;-1.00;101040;316;1004239;-35
2023/09/07 02:57:48;;;;;;;8.10;4.50;;;;;;;-128.00;-1.00;-1.00;100998;317;1003240;-30
2023/09/07 03:00:17;;;;;;;11.50;6.30;;;;;;;-128.00;-1.00;-1.00;101029;317;1003984;-35
2023/09/07 03:02:43;;;;;;;4.00;1.60;;;;;;;-128.00;-1.00;-1.00;101014;317;1004738;-35
2023/09/07 03:05:09;;;;;;;11.90;5.50;;;;;;;-128.00;-1.00;-1.00;101059;316;1003050;-35
2023/09/07 03:07:35;;;;;;;6.60;4.00;;;;;;;-128.00;-1.00;-1.00;100976;320;1005358;-34
2023/09/07 03:10:01;;;;;;;6.60;3.70;;;;;;;-128.00;-1.00;-1.00;94676;317;3003061;-35
2023/09/07 03:12:27;;;;;;;12.10;8.00;;;;;;;-128.00;-1.00;-1.00;40549;321;7504607;-30
2023/09/07 03:14:54;;;;;;;12.10;8.00;;;;;;;-128.00;-1.00;-1.00;19523;322;7504852;-30
2023/09/07 03:17:23;;;;;;;12.10;8.00;;;;;;;-128.00;-1.00;-1.00;22874;317;7505172;-30
2023/09/07 03:19:49;;;;;;;9.20;6.20;;;;;;;-128.00;-1.00;-1.00;99742;318;2503402;-39
2023/09/07 03:22:17;;;;;;;17.50;8.40;;;;;;;-128.00;-1.00;-1.00;57766;316;7503757;-35
2023/09/07 03:24:44;;;;;;;14.40;9.30;;;;;;;-128.00;-1.00;-1.00;23892;317;7504708;-35
2023/09/07 03:27:11;;;;;;;12.50;9.00;;;;;;;-128.00;-1.00;-1.00;19487;322;7504948;-35
2023/09/07 03:29:37;;;;;;;14.30;8.30;;;;;;;-128.00;-1.00;-1.00;19650;320;7504858;-35
2023/09/07 03:32:03;;;;;;;11.90;8.60;;;;;;;-128.00;-1.00;-1.00;19484;321;7505255;-35
2023/09/07 03:34:29;;;;;;;13.30;8.90;;;;;;;-128.00;-1.00;-1.00;19478;316;7504566;-29
2023/09/07 03:36:55;;;;;;;11.70;7.70;;;;;;;-128.00;-1.00;-1.00;19463;322;7505590;-30
2023/09/07 03:39:23;;;;;;;8.00;5.60;;;;;;;-128.00;-1.00;-1.00;20204;321;7505098;-34
2023/09/07 03:41:49;;;;;;;16.20;10.20;;;;;;;-128.00;-1.00;-1.00;19495;322;7505381;-34
2023/09/07 03:44:15;;;;;;;20.00;12.70;;;;;;;-128.00;-1.00;-1.00;19464;317;7505543;-31
2023/09/07 03:46:41;;;;;;;28.20;16.60;;;;;;;-128.00;-1.00;-1.00;19473;316;7505572;-30
2023/09/07 03:49:08;;;;;;;38.10;24.70;;;;;;;-128.00;-1.00;-1.00;20214;316;7504998;-31
2023/09/07 03:51:35;;;;;;;31.00;22.20;;;;;;;-128.00;-1.00;-1.00;19461;322;7506601;-31
2023/09/07 03:54:01;;;;;;;42.20;26.30;;;;;;;-128.00;-1.00;-1.00;19463;317;7504206;-34
2023/09/07 03:56:27;;;;;;;47.80;23.50;;;;;;;-128.00;-1.00;-1.00;19506;317;7504605;-30
2023/09/07 03:58:53;;;;;;;21.70;15.60;;;;;;;-128.00;-1.00;-1.00;19477;316;7505456;-31
2023/09/07 04:01:20;;;;;;;23.90;16.70;;;;;;;-128.00;-1.00;-1.00;20238;316;7504662;-30
2023/09/07 04:03:46;;;;;;;22.50;13.60;;;;;;;-128.00;-1.00;-1.00;20781;317;7504429;-35
2023/09/07 04:06:12;;;;;;;22.20;15.70;;;;;;;-128.00;-1.00;-1.00;24805;316;7504631;-34
2023/09/07 04:08:37;;;;;;;29.10;18.40;;;;;;;-128.00;-1.00;-1.00;25860;316;7503970;-31
2023/09/07 04:11:04;;;;;;;31.90;22.40;;;;;;;-128.00;-1.00;-1.00;35986;320;7504453;-34
2023/09/07 04:13:32;;;;;;;47.10;21.00;;;;;;;-128.00;-1.00;-1.00;38275;316;7504519;-30
2023/09/07 04:15:58;;;;;;;30.60;17.50;;;;;;;-128.00;-1.00;-1.00;24141;321;7505272;-35
2023/09/07 04:18:26;;;;;;;25.70;16.00;;;;;;;-128.00;-1.00;-1.00;21352;317;7504106;-34
2023/09/07 04:20:52;;;;;;;27.30;16.90;;;;;;;-128.00;-1.00;-1.00;19794;322;7504870;-31
2023/09/07 04:23:18;;;;;;;28.10;16.20;;;;;;;-128.00;-1.00;-1.00;19478;317;7506875;-34
2023/09/07 04:25:44;;;;;;;26.10;16.40;;;;;;;-128.00;-1.00;-1.00;19704;322;7505142;-30
2023/09/07 04:28:10;;;;;;;27.60;15.40;;;;;;;-128.00;-1.00;-1.00;22262;317;7504545;-34
2023/09/07 04:30:38;;;;;;;20.50;13.10;;;;;;;-128.00;-1.00;-1.00;19488;322;7507122;-35
2023/09/07 04:33:04;;;;;;;11.40;9.90;;;;;;;-128.00;-1.00;-1.00;19063;316;7505194;-31
2023/09/07 04:35:30;;;;;;;13.20;10.60;;;;;;;-128.00;-1.00;-1.00;19081;322;7505164;-31
2023/09/07 04:37:56;;;;;;;14.10;10.50;;;;;;;-128.00;-1.00;-1.00;19068;316;7505026;-32
2023/09/07 04:40:22;;;;;;;14.80;10.40;;;;;;;-128.00;-1.00;-1.00;19062;316;7508198;-35
2023/09/07 04:42:48;;;;;;;13.50;9.40;;;;;;;-128.00;-1.00;-1.00;19063;317;7504893;-30
2023/09/07 04:45:14;;;;;;;19.80;12.20;;;;;;;-128.00;-1.00;-1.00;19490;317;7505798;-35
2023/09/07 04:47:40;;;;;;;14.20;10.50;;;;;;;-128.00;-1.00;-1.00;19491;316;7505486;-34
2023/09/07 04:50:07;;;;;;;13.90;9.90;;;;;;;-128.00;-1.00;-1.00;19495;317;7505882;-31
2023/09/07 04:52:34;;;;;;;20.50;8.70;;;;;;;-128.00;-1.00;-1.00;19017;321;7504599;-35
2023/09/07 04:55:00;;;;;;;10.60;8.40;;;;;;;-128.00;-1.00;-1.00;19056;321;7505398;-34
2023/09/07 04:57:26;;;;;;;13.90;9.50;;;;;;;-128.00;-1.00;-1.00;19069;316;7504808;-35
2023/09/07 04:59:52;;;;;;;12.00;9.40;;;;;;;-128.00;-1.00;-1.00;19488;316;7506397;-32
2023/09/07 05:02:18;;;;;;;14.30;10.90;;;;;;;-128.00;-1.00;-1.00;19484;317;7505288;-32
2023/09/07 05:04:45;;;;;;;24.90;10.30;;;;;;;-128.00;-1.00;-1.00;19476;317;7505112;-31
2023/09/07 05:07:12;;;;;;;13.90;8.10;;;;;;;-128.00;-1.00;-1.00;19475;316;7506163;-36
2023/09/07 05:09:37;;;;;;;13.80;7.80;;;;;;;-128.00;-1.00;-1.00;19037;322;7505208;-35
2023/09/07 05:12:03;;;;;;;10.30;7.70;;;;;;;-128.00;-1.00;-1.00;19073;317;7504603;-35
2023/09/07 05:14:29;;;;;;;33.40;8.20;;;;;;;-128.00;-1.00;-1.00;19061;316;7506448;-32
2023/09/07 05:16:56;;;;;;;10.50;7.50;;;;;;;-128.00;-1.00;-1.00;19065;316;7504529;-31
2023/09/07 05:19:22;;;;;;;12.00;9.00;;;;;;;-128.00;-1.00;-1.00;19048;317;7504772;-32
2023/09/07 05:21:48;;;;;;;13.70;8.20;;;;;;;-128.00;-1.00;-1.00;19061;320;7505485;-36
2023/09/07 05:24:15;;;;;;;14.50;8.30;;;;;;;-128.00;-1.00;-1.00;19064;317;7504941;-31
2023/09/07 05:26:42;;;;;;;20.30;13.80;;;;;;;-128.00;-1.00;-1.00;19060;316;7505343;-31
2023/09/07 05:29:07;;;;;;;12.90;8.80;;;;;;;-128.00;-1.00;-1.00;19041;317;7506227;-35
2023/09/07 05:31:34;;;;;;;12.90;9.00;;;;;;;-128.00;-1.00;-1.00;19501;320;7505132;-35
2023/09/07 05:34:00;;;;;;;15.50;10.40;;;;;;;-128.00;-1.00;-1.00;19507;316;7505389;-31
2023/09/07 05:36:27;;;;;;;16.50;9.40;;;;;;;-128.00;-1.00;-1.00;19489;322;7504848;-35
2023/09/07 05:38:53;;;;;;;20.40;10.10;;;;;;;-128.00;-1.00;-1.00;19473;316;7504487;-32
2023/09/07 05:41:19;;;;;;;13.80;9.50;;;;;;;-128.00;-1.00;-1.00;19470;317;7504606;-31
2023/09/07 05:43:45;;;;;;;18.90;10.00;;;;;;;-128.00;-1.00;-1.00;19483;317;7504737;-35
2023/09/07 05:46:11;;;;;;;14.50;11.00;;;;;;;-128.00;-1.00;-1.00;19461;316;7504940;-32
2023/09/07 05:48:38;;;;;;;22.30;10.90;;;;;;;-128.00;-1.00;-1.00;19472;316;7504823;-35
2023/09/07 05:51:04;;;;;;;10.90;7.90;;;;;;;-128.00;-1.00;-1.00;19414;322;7504891;-35
2023/09/07 05:53:30;;;;;;;11.50;8.60;;;;;;;-128.00;-1.00;-1.00;19484;316;7504975;-35
2023/09/07 05:55:56;;;;;;;11.70;8.00;;;;;;;-128.00;-1.00;-1.00;19481;316;7505056;-32
2023/09/07 05:58:22;;;;;;;12.10;8.60;;;;;;;-128.00;-1.00;-1.00;19422;319;7506464;-30
2023/09/07 06:00:49;;;;;;;12.60;7.90;;;;;;;-128.00;-1.00;-1.00;19475;316;7504458;-30
2023/09/07 06:03:15;;;;;;;9.60;7.20;;;;;;;-128.00;-1.00;-1.00;19446;322;7506517;-30
2023/09/07 06:05:41;;;;;;;12.50;8.40;;;;;;;-128.00;-1.00;-1.00;19486;317;7505939;-37
2023/09/07 06:08:08;;;;;;;12.20;8.30;;;;;;;-128.00;-1.00;-1.00;19486;316;7504881;-30
2023/09/07 06:10:34;;;;;;;17.30;8.80;;;;;;;-128.00;-1.00;-1.00;19492;317;7505287;-31
2023/09/07 06:13:00;;;;;;;8.20;6.60;;;;;;;-128.00;-1.00;-1.00;19501;317;7504870;-31
2023/09/07 06:15:27;;;;;;;16.70;7.00;;;;;;;-128.00;-1.00;-1.00;19498;316;7505519;-35
2023/09/07 06:17:54;;;;;;;9.40;6.60;;;;;;;-128.00;-1.00;-1.00;19478;317;7505324;-35
2023/09/07 06:20:20;;;;;;;8.70;6.10;;;;;;;-128.00;-1.00;-1.00;19064;316;7504476;-32
2023/09/07 06:22:45;;;;;;;14.80;5.40;;;;;;;-128.00;-1.00;-1.00;19067;317;7505304;-35
2023/09/07 06:25:12;;;;;;;10.70;6.40;;;;;;;-128.00;-1.00;-1.00;19059;322;7506607;-35
2023/09/07 06:27:40;;;;;;;15.20;6.50;;;;;;;-128.00;-1.00;-1.00;19069;316;7505852;-32
2023/09/07 06:30:08;;;;;;;8.30;6.00;;;;;;;-128.00;-1.00;-1.00;19072;317;7505068;-32
2023/09/07 06:32:33;;;;;;;5.60;4.50;;;;;;;-128.00;-1.00;-1.00;19055;317;7506523;-35
2023/09/07 06:34:59;;;;;;;10.80;5.80;;;;;;;-128.00;-1.00;-1.00;19067;316;7504515;-32
2023/09/07 06:37:25;;;;;;;9.90;5.80;;;;;;;-128.00;-1.00;-1.00;19063;317;7505579;-36
2023/09/07 06:39:51;;;;;;;13.80;6.10;;;;;;;-128.00;-1.00;-1.00;19483;317;7505116;-36
2023/09/07 06:42:17;;;;;;;11.60;6.50;;;;;;;-128.00;-1.00;-1.00;19471;317;7504296;-32
2023/09/07 06:44:45;;;;;;;8.10;5.80;;;;;;;-128.00;-1.00;-1.00;19462;320;7504712;-32
2023/09/07 06:47:10;;;;;;;12.60;5.60;;;;;;;-128.00;-1.00;-1.00;19059;322;7504919;-31
2023/09/07 06:49:40;;;;;;;11.00;6.50;;;;;;;-128.00;-1.00;-1.00;19483;316;7504813;-34
2023/09/07 06:52:05;;;;;;;7.50;5.30;;;;;;;-128.00;-1.00;-1.00;19081;321;7504473;-32
2023/09/07 06:54:31;;;;;;;8.80;5.90;;;;;;;-128.00;-1.00;-1.00;19058;321;7504909;-36
2023/09/07 06:56:57;;;;;;;9.50;5.10;;;;;;;-128.00;-1.00;-1.00;19475;316;7505170;-33
2023/09/07 06:59:23;;;;;;;7.60;5.70;;;;;;;-128.00;-1.00;-1.00;19498;317;7505414;-32
2023/09/07 07:01:50;;;;;;;10.80;5.30;;;;;;;-128.00;-1.00;-1.00;19447;318;7507689;-32
2023/09/07 07:04:16;;;;;;;8.00;4.40;;;;;;;-128.00;-1.00;-1.00;19513;320;7507003;-36
2023/09/07 07:06:42;;;;;;;8.40;5.40;;;;;;;-128.00;-1.00;-1.00;19503;317;7504598;-31
2023/09/07 07:09:09;;;;;;;6.10;3.90;;;;;;;-128.00;-1.00;-1.00;19457;317;7504778;-36
2023/09/07 07:11:34;;;;;;;8.00;5.60;;;;;;;-128.00;-1.00;-1.00;19064;317;7505411;-32
2023/09/07 07:14:00;;;;;;;6.60;4.80;;;;;;;-128.00;-1.00;-1.00;19482;317;7504747;-33
2023/09/07 07:16:27;;;;;;;6.30;4.80;;;;;;;-128.00;-1.00;-1.00;19497;317;7506045;-36
2023/09/07 07:18:53;;;;;;;5.50;4.20;;;;;;;-128.00;-1.00;-1.00;19488;317;7504442;-33
2023/09/07 07:21:19;;;;;;;7.50;4.70;;;;;;;-128.00;-1.00;-1.00;19505;316;7505542;-35
2023/09/07 07:23:45;;;;;;;6.80;4.80;;;;;;;-128.00;-1.00;-1.00;19475;316;7504890;-30
2023/09/07 07:26:12;;;;;;;12.20;5.20;;;;;;;-128.00;-1.00;-1.00;19475;320;7506125;-35
2023/09/07 07:28:38;;;;;;;9.00;4.20;;;;;;;-128.00;-1.00;-1.00;19468;317;7505198;-36
2023/09/07 07:31:09;;;;;;;7.70;5.10;;;;;;;-128.00;-1.00;-1.00;19452;318;7504519;-32
2023/09/07 07:33:35;;;;;;;14.70;4.40;;;;;;;-128.00;-1.00;-1.00;19067;321;7505388;-35
2023/09/07 07:36:01;;;;;;;4.10;3.80;;;;;;;-128.00;-1.00;-1.00;19068;322;7505074;-32
2023/09/07 07:38:26;;;;;;;7.30;4.50;;;;;;;-128.00;-1.00;-1.00;19065;321;7505174;-31
2023/09/07 07:40:53;;;;;;;7.20;4.00;;;;;;;-128.00;-1.00;-1.00;19078;317;7504955;-36
2023/09/07 07:43:18;;;;;;;5.80;4.50;;;;;;;-128.00;-1.00;-1.00;19072;321;7504997;-35
2023/09/07 07:45:44;;;;;;;4.60;3.80;;;;;;;-128.00;-1.00;-1.00;19099;317;7505754;-32
2023/09/07 07:48:10;;;;;;;5.10;4.20;;;;;;;-128.00;-1.00;-1.00;19080;317;7504912;-32
2023/09/07 07:50:39;;;;;;;5.80;4.20;;;;;;;-128.00;-1.00;-1.00;19063;322;7504763;-32
2023/09/07 07:53:06;;;;;;;10.50;5.30;;;;;;;-128.00;-1.00;-1.00;19067;320;7504536;-32
2023/09/07 07:55:38;;;;;;;4.60;4.10;;;;;;;-128.00;-1.00;-1.00;19064;320;7504816;-36
2023/09/07 07:58:08;;;;;;;7.20;4.40;;;;;;;-128.00;-1.00;-1.00;19055;322;7504697;-36
2023/09/07 08:00:37;;;;;;;4.90;3.60;;;;;;;-128.00;-1.00;-1.00;19073;322;7505231;-32
2023/09/07 08:03:05;;;;;;;3.80;3.40;;;;;;;-128.00;-1.00;-1.00;19065;321;7504710;-35
2023/09/07 08:05:34;;;;;;;6.60;4.40;;;;;;;-128.00;-1.00;-1.00;19058;317;7504643;-36
2023/09/07 08:08:00;;;;;;;5.00;4.10;;;;;;;-128.00;-1.00;-1.00;19062;317;7506050;-32
2023/09/07 08:10:26;;;;;;;10.00;4.10;;;;;;;-128.00;-1.00;-1.00;19017;318;7504475;-36
2023/09/07 08:12:55;;;;;;;12.80;3.50;;;;;;;-128.00;-1.00;-1.00;63018;316;7504733;-31
2023/09/07 08:15:22;;;;;;;5.10;3.00;;;;;;;-128.00;-1.00;-1.00;97199;316;2853475;-31
2023/09/07 08:17:48;;;;;;;3.70;2.80;;;;;;;-128.00;-1.00;-1.00;100969;316;1003793;-35
2023/09/07 08:20:15;;;;;;;10.00;4.50;;;;;;;-128.00;-1.00;-1.00;100726;316;1003009;-35
2023/09/07 08:22:42;;;;;;;2.40;2.10;;;;;;;-128.00;-1.00;-1.00;100969;316;1003903;-31
2023/09/07 08:25:14;;;;;;;3.90;3.20;;;;;;;-128.00;-1.00;-1.00;101000;317;1002926;-35
2023/09/07 08:27:44;;;;;;;;;;;;;;;-128.00;-1.00;-1.00;100770;316;1003048;-31
2023/09/07 08:30:17;;;;;;;4.70;3.40;;;;;;;-128.00;-1.00;-1.00;100960;316;1003199;-31
2023/09/07 08:32:44;;;;;;;5.20;3.90;;;;;;;-128.00;-1.00;-1.00;100737;316;1002821;-32
2023/09/07 08:35:16;;;;;;;5.40;4.80;;;;;;;-128.00;-1.00;-1.00;77897;316;4503276;-36
2023/09/07 08:37:44;;;;;;;4.80;3.40;;;;;;;-128.00;-1.00;-1.00;27333;321;7504519;-33
2023/09/07 08:40:11;;;;;;;4.30;3.40;;;;;;;-128.00;-1.00;-1.00;21226;316;7504468;-32
2023/09/07 08:42:37;;;;;;;3.70;3.00;;;;;;;-128.00;-1.00;-1.00;79418;317;7504143;-32
2023/09/07 08:45:07;;;;;;;7.30;4.10;;;;;;;-128.00;-1.00;-1.00;47835;317;7504149;-31
2023/09/07 08:47:34;;;;;;;7.60;4.10;;;;;;;-128.00;-1.00;-1.00;19068;321;7505220;-36
2023/09/07 08:50:02;;;;;;;4.70;3.90;;;;;;;-128.00;-1.00;-1.00;19491;316;7504929;-36
2023/09/07 08:52:28;;;;;;;3.50;2.90;;;;;;;-128.00;-1.00;-1.00;19154;316;7504662;-32
2023/09/07 08:54:54;;;;;;;4.20;3.40;;;;;;;-128.00;-1.00;-1.00;19038;317;7504986;-36
2023/09/07 08:57:19;;;;;;;11.30;4.40;;;;;;;-128.00;-1.00;-1.00;46021;317;7504511;-37
2023/09/07 08:59:45;;;;;;;5.10;3.30;;;;;;;-128.00;-1.00;-1.00;88474;317;4203415;-35
2023/09/07 09:02:11;;;;;;;20.40;3.10;;;;;;;-128.00;-1.00;-1.00;101001;316;1003078;-37
2023/09/07 09:04:37;;;;;;;6.20;3.20;;;;;;;-128.00;-1.00;-1.00;100993;316;1003606;-35
2023/09/07 09:07:04;;;;;;;2.80;2.20;;;;;;;-128.00;-1.00;-1.00;100634;317;1003199;-35
2023/09/07 09:09:30;;;;;;;2.00;1.70;;;;;;;-128.00;-1.00;-1.00;101020;316;1003038;-31
2023/09/07 09:12:06;;;;;;;5.30;2.90;;;;;;;-128.00;-1.00;-1.00;100992;316;1003332;-33
2023/09/07 09:14:32;;;;;;;3.60;3.10;;;;;;;-128.00;-1.00;-1.00;101075;316;1004636;-35
2023/09/07 09:16:58;;;;;;;6.90;4.20;;;;;;;-128.00;-1.00;-1.00;101021;316;1002976;-36
2023/09/07 09:19:33;;;;;;;4.70;3.50;;;;;;;-128.00;-1.00;-1.00;100775;317;1003265;-32
2023/09/07 09:21:59;;;;;;;4.60;3.40;;;;;;;-128.00;-1.00;-1.00;100246;317;1655573;-34
2023/09/07 09:24:25;;;;;;;11.70;4.20;;;;;;;-128.00;-1.00;-1.00;101027;316;1002947;-35
2023/09/07 09:26:51;;;;;;;5.60;4.40;;;;;;;-128.00;-1.00;-1.00;100803;317;1003144;-31
2023/09/07 09:29:22;;;;;;;2.50;1.80;;;;;;;-128.00;-1.00;-1.00;101026;316;1003023;-35
2023/09/07 09:31:48;;;;;;;13.50;2.50;;;;;;;-128.00;-1.00;-1.00;101036;317;1002883;-31
2023/09/07 09:34:14;;;;;;;4.20;3.30;;;;;;;-128.00;-1.00;-1.00;100985;316;1003551;-31
2023/09/07 09:36:41;;;;;;;7.00;4.20;;;;;;;-128.00;-1.00;-1.00;100984;316;1003743;-31
2023/09/07 09:39:08;;;;;;;3.90;3.40;;;;;;;-128.00;-1.00;-1.00;100971;316;1003602;-35
2023/09/07 09:41:33;;;;;;;4.40;2.80;;;;;;;-128.00;-1.00;-1.00;100987;316;1003716;-35
2023/09/07 09:44:00;;;;;;;5.60;2.80;;;;;;;-128.00;-1.00;-1.00;100997;316;1003022;-31
2023/09/07 09:46:25;;;;;;;3.20;2.50;;;;;;;-128.00;-1.00;-1.00;101060;316;1003764;-31
2023/09/07 09:48:51;;;;;;;5.80;2.90;;;;;;;-128.00;-1.00;-1.00;100825;317;1003189;-32
2023/09/07 09:51:17;;;;;;;3.80;2.80;;;;;;;-128.00;-1.00;-1.00;101039;316;1003010;-35
2023/09/07 09:53:42;;;;;;;3.50;2.10;;;;;;;-128.00;-1.00;-1.00;101011;316;1003627;-35
2023/09/07 09:56:08;;;;;;;4.90;2.70;;;;;;;-128.00;-1.00;-1.00;101000;317;1004025;-32
2023/09/07 09:58:35;;;;;;;5.00;3.60;;;;;;;-128.00;-1.00;-1.00;65208;317;4503420;-33
2023/09/07 10:01:05;;;;;;;6.10;4.00;;;;;;;-128.00;-1.00;-1.00;19511;316;7505124;-37
2023/09/07 10:03:32;;;;;;;3.30;2.20;;;;;;;-128.00;-1.00;-1.00;60380;316;7504705;-32
2023/09/07 10:06:10;;;;;;;4.00;2.90;;;;;;;-128.00;-1.00;-1.00;79647;316;4503422;-36
2023/09/07 10:08:36;;;;;;;5.70;3.30;;;;;;;-128.00;-1.00;-1.00;69679;316;7504805;-37
2023/09/07 10:11:07;;;;;;;4.20;2.80;;;;;;;-128.00;-1.00;-1.00;101075;316;1002898;-31
2023/09/07 10:13:36;;;;;;;4.60;3.20;;;;;;;-128.00;-1.00;-1.00;101046;316;1004764;-37
2023/09/07 10:16:09;;;;;;;3.90;2.70;;;;;;;-128.00;-1.00;-1.00;100984;316;1003187;-37
2023/09/07 10:18:38;;;;;;;3.00;2.10;;;;;;;-128.00;-1.00;-1.00;95949;316;3003432;-31
2023/09/07 10:21:04;;;;;;;3.90;3.50;;;;;;;-128.00;-1.00;-1.00;52755;316;7504703;-35
2023/09/07 10:23:42;;;;;;;3.10;2.40;;;;;;;-128.00;-1.00;-1.00;100802;316;1003035;-31
2023/09/07 10:26:23;;;;;;;4.00;2.30;;;;;;;-128.00;-1.00;-1.00;100975;316;1003237;-35
2023/09/07 10:28:58;;;;;;;3.60;2.90;;;;;;;-128.00;-1.00;-1.00;101052;316;1003821;-35
2023/09/07 10:31:25;;;;;;;3.50;2.70;;;;;;;-128.00;-1.00;-1.00;100995;316;1003255;-35
2023/09/07 10:33:50;;;;;;;4.70;2.40;;;;;;;-128.00;-1.00;-1.00;101023;316;1003855;-34
2023/09/07 10:36:23;;;;;;;3.80;3.10;;;;;;;-128.00;-1.00;-1.00;101053;317;1003214;-37
2023/09/07 10:38:49;;;;;;;9.60;3.30;;;;;;;-128.00;-1.00;-1.00;101069;316;1002139;-30
2023/09/07 10:41:14;;;;;;;5.80;5.20;;;;;;;-128.00;-1.00;-1.00;101034;317;1003521;-33
2023/09/07 10:43:47;;;;;;;4.00;3.60;;;;;;;-128.00;-1.00;-1.00;101028;316;1004761;-32
2023/09/07 10:46:12;;;;;;;3.00;2.40;;;;;;;-128.00;-1.00;-1.00;101011;317;1003048;-35
2023/09/07 10:48:38;;;;;;;3.10;2.20;;;;;;;-128.00;-1.00;-1.00;101001;316;1003334;-30
2023/09/07 10:51:03;;;;;;;2.80;2.50;;;;;;;-128.00;-1.00;-1.00;101050;316;1003210;-31
2023/09/07 10:53:31;;;;;;;3.80;2.70;;;;;;;-128.00;-1.00;-1.00;100979;316;1003284;-36
2023/09/07 10:55:58;;;;;;;3.50;3.10;;;;;;;-128.00;-1.00;-1.00;101037;316;1003874;-33
2023/09/07 10:58:30;;;;;;;3.50;2.60;;;;;;;-128.00;-1.00;-1.00;101030;316;1003484;-33
2023/09/07 11:00:56;;;;;;;15.10;2.40;;;;;;;-128.00;-1.00;-1.00;100977;316;1002883;-31
2023/09/07 11:03:22;;;;;;;4.50;3.40;;;;;;;-128.00;-1.00;-1.00;101075;317;1003691;-31
2023/09/07 11:05:47;;;;;;;4.80;3.20;;;;;;;-128.00;-1.00;-1.00;100992;316;1003316;-35
2023/09/07 11:08:13;;;;;;;8.80;2.80;;;;;;;-128.00;-1.00;-1.00;101010;317;1003637;-31
2023/09/07 11:10:38;;;;;;;4.50;2.40;;;;;;;-128.00;-1.00;-1.00;100991;316;1003037;-35
2023/09/07 11:13:04;;;;;;;4.00;3.10;;;;;;;-128.00;-1.00;-1.00;100961;316;1002901;-35
2023/09/07 11:15:31;;;;;;;7.50;3.40;;;;;;;-128.00;-1.00;-1.00;101003;316;1003164;-37
2023/09/07 11:17:57;;;;;;;;;;;;;;;-128.00;-1.00;-1.00;101107;316;1004306;-31
2023/09/07 11:20:23;;;;;;;3.60;3.10;;;;;;;-128.00;-1.00;-1.00;100974;316;1003085;-31
2023/09/07 11:22:50;;;;;;;4.30;3.60;;;;;;;-128.00;-1.00;-1.00;101008;316;1003293;-31
2023/09/07 11:25:17;;;;;;;4.90;3.30;;;;;;;-128.00;-1.00;-1.00;101036;316;1003057;-32
2023/09/07 11:27:42;;;;;;;6.00;3.70;;;;;;;-128.00;-1.00;-1.00;100987;316;1003074;-31
2023/09/07 11:30:10;;;;;;;2.00;1.20;;;;;;;-128.00;-1.00;-1.00;100994;316;1002893;-31
2023/09/07 11:32:36;;;;;;;4.00;3.10;;;;;;;-128.00;-1.00;-1.00;100980;316;1003390;-35
2023/09/07 11:35:02;;;;;;;4.50;3.70;;;;;;;-128.00;-1.00;-1.00;101086;316;1003563;-31
2023/09/07 11:37:28;;;;;;;6.30;3.40;;;;;;;-128.00;-1.00;-1.00;101109;316;1003326;-35
2023/09/07 11:39:54;;;;;;;2.20;1.50;;;;;;;-128.00;-1.00;-1.00;101010;317;1004229;-35
2023/09/07 11:42:20;;;;;;;3.00;2.40;;;;;;;-128.00;-1.00;-1.00;100978;316;1004738;-35
2023/09/07 11:44:45;;;;;;;2.60;2.10;;;;;;;-128.00;-1.00;-1.00;101032;316;1003563;-34
2023/09/07 11:47:11;;;;;;;;;;;;;;;-128.00;-1.00;-1.00;101071;316;1004381;-40
2023/09/07 11:49:36;;;;;;;2.60;1.90;;;;;;;-128.00;-1.00;-1.00;100952;316;1003330;-39
2023/09/07 11:52:02;;;;;;;6.50;2.50;;;;;;;-128.00;-1.00;-1.00;101011;316;1003243;-30
2023/09/07 11:54:28;;;;;;;6.30;2.30;;;;;;;-128.00;-1.00;-1.00;100957;316;1002877;-31
2023/09/07 11:56:54;;;;;;;4.30;3.50;;;;;;;-128.00;-1.00;-1.00;100947;316;1003151;-35
2023/09/07 11:59:19;;;;;;;3.10;2.30;;;;;;;-128.00;-1.00;-1.00;101009;316;1003981;-31
2023/09/07 12:01:45;;;;;;;3.50;3.10;;;;;;;-128.00;-1.00;-1.00;100948;316;1002366;-35
2023/09/07 12:04:11;;;;;;;2.60;2.30;;;;;;;-128.00;-1.00;-1.00;100951;316;1002997;-31